createdAt,value
2023-01-19T00:02:40.085Z,1.80
2023-01-19T00:07:42.058Z,1.80
2023-01-19T00:12:44.067Z,1.70
2023-01-19T00:17:45.856Z,1.70
2023-01-19T00:22:51.150Z,1.60
2023-01-19T00:27:52.928Z,1.60
2023-01-19T00:32:54.890Z,1.60
2023-01-19T00:37:58.032Z,1.60
2023-01-19T00:43:00.638Z,1.60
2023-01-19T00:48:02.973Z,1.60
2023-01-19T00:53:05.105Z,1.60
2023-01-19T00:58:07.333Z,1.60
2023-01-19T01:03:10.212Z,1.50
2023-01-19T01:08:12.031Z,1.50
2023-01-19T01:13:21.665Z,1.50
2023-01-19T01:18:26.313Z,1.50
2023-01-19T01:23:28.103Z,1.50
2023-01-19T01:28:29.881Z,1.40
2023-01-19T01:33:41.370Z,1.40
2023-01-19T01:38:43.638Z,1.50
2023-01-19T01:43:58.171Z,1.40
2023-01-19T01:49:10.329Z,1.30
2023-01-19T01:54:18.339Z,1.30
2023-01-19T01:59:26.321Z,1.40
2023-01-19T02:04:29.845Z,1.30
2023-01-19T02:09:53.600Z,1.30
2023-01-19T02:14:55.516Z,1.30
2023-01-19T02:19:58.253Z,1.30
2023-01-19T02:25:00.244Z,1.30
2023-01-19T02:30:03.827Z,1.30
2023-01-19T02:35:06.587Z,1.30
2023-01-19T02:40:12.710Z,1.40
2023-01-19T02:45:19.916Z,1.30
2023-01-19T02:50:53.060Z,1.40
2023-01-19T02:56:11.991Z,1.40
2023-01-19T03:01:21.562Z,1.40
2023-01-19T03:06:32.367Z,1.30
2023-01-19T03:11:40.173Z,1.40
2023-01-19T03:16:51.264Z,1.40
2023-01-19T03:22:00.204Z,1.40
2023-01-19T03:27:08.591Z,1.50
2023-01-19T03:32:16.336Z,1.50
2023-01-19T03:37:20.469Z,1.50
2023-01-19T03:42:23.956Z,1.60
2023-01-19T03:47:26.036Z,1.60
2023-01-19T03:52:29.911Z,1.70
2023-01-19T03:57:32.272Z,1.70
2023-01-19T04:02:34.058Z,1.80
2023-01-19T04:07:35.873Z,1.80
2023-01-19T04:12:37.714Z,1.80
2023-01-19T04:17:39.914Z,1.70
2023-01-19T04:22:42.612Z,1.70
2023-01-19T04:27:44.420Z,1.60
2023-01-19T04:32:46.672Z,1.60
2023-01-19T04:37:48.613Z,1.60
2023-01-19T04:42:50.963Z,1.60
2023-01-19T04:47:53.043Z,1.60
2023-01-19T04:52:54.793Z,1.60
2023-01-19T04:57:56.912Z,1.60
2023-01-19T05:02:59.003Z,1.50
2023-01-19T05:08:01.373Z,1.50
2023-01-19T05:13:04.292Z,1.50
2023-01-19T05:18:06.167Z,1.40
2023-01-19T05:23:07.922Z,1.40
2023-01-19T05:28:09.691Z,1.40
2023-01-19T05:33:11.627Z,1.40
2023-01-19T05:38:14.530Z,1.30
2023-01-19T05:43:17.477Z,1.30
2023-01-19T05:48:19.319Z,1.30
2023-01-19T05:53:21.234Z,1.30
2023-01-19T05:58:23.058Z,1.20
2023-01-19T06:03:24.869Z,1.20
2023-01-19T06:08:27.122Z,1.20
2023-01-19T06:13:28.897Z,1.20
2023-01-19T06:18:30.679Z,1.20
2023-01-19T06:23:33.842Z,1.20
2023-01-19T06:28:35.806Z,1.20
2023-01-19T06:33:37.835Z,1.20
2023-01-19T06:38:39.911Z,1.20
2023-01-19T06:43:41.675Z,1.10
2023-01-19T06:48:43.417Z,1.10
2023-01-19T06:53:45.783Z,1.20
2023-01-19T06:58:48.385Z,1.10
2023-01-19T07:03:50.341Z,1.20
2023-01-19T07:08:52.128Z,1.20
2023-01-19T07:13:54.700Z,1.30
2023-01-19T07:18:56.536Z,1.40
2023-01-19T07:23:58.399Z,1.30
2023-01-19T07:29:00.200Z,1.30
2023-01-19T07:34:02.080Z,1.30
2023-01-19T07:39:03.965Z,1.30
2023-01-19T07:44:05.746Z,1.30
2023-01-19T07:49:08.144Z,1.20
2023-01-19T07:54:10.359Z,1.30
2023-01-19T07:59:12.453Z,1.30
2023-01-19T08:04:14.272Z,1.30
2023-01-19T08:09:16.130Z,1.30
2023-01-19T08:14:18.195Z,1.40
2023-01-19T08:19:20.059Z,1.40
2023-01-19T08:24:23.681Z,1.40
2023-01-19T08:29:26.102Z,1.50
2023-01-19T08:34:27.916Z,1.70
2023-01-19T08:39:30.160Z,1.80
2023-01-19T08:44:31.936Z,1.90
2023-01-19T08:49:33.765Z,1.80
2023-01-19T08:54:36.026Z,2.00
2023-01-19T08:59:38.206Z,2.00
2023-01-19T09:04:39.981Z,2.20
2023-01-19T09:09:43.482Z,2.10
2023-01-19T09:14:45.365Z,2.10
2023-01-19T09:19:48.403Z,2.00
2023-01-19T09:24:50.255Z,2.00
2023-01-19T09:29:54.869Z,2.00
2023-01-19T09:34:56.882Z,2.00
2023-01-19T09:39:58.650Z,2.10
2023-01-19T09:45:02.459Z,2.10
2023-01-19T09:50:10.649Z,2.20
2023-01-19T09:55:26.990Z,2.30
2023-01-19T10:00:30.834Z,2.30
2023-01-19T10:05:47.445Z,2.40
2023-01-19T10:10:53.739Z,2.50
2023-01-19T10:16:31.580Z,2.70
2023-01-19T10:21:43.319Z,2.80
2023-01-19T10:26:52.523Z,2.70
2023-01-19T10:32:12.973Z,2.70
2023-01-19T10:37:21.970Z,2.70
2023-01-19T10:42:23.876Z,2.60
2023-01-19T10:47:33.544Z,2.50
2023-01-19T10:52:39.762Z,2.80
2023-01-19T10:57:43.493Z,2.90
2023-01-19T11:02:51.362Z,2.70
2023-01-19T11:07:53.317Z,2.90
2023-01-19T11:13:12.922Z,2.70
2023-01-19T11:18:36.707Z,2.80
2023-01-19T11:23:42.121Z,2.80
2023-01-19T11:28:49.356Z,2.60
2023-01-19T11:33:53.636Z,2.80
2023-01-19T11:39:16.778Z,2.80
2023-01-19T11:44:28.110Z,2.70
2023-01-19T11:49:38.760Z,2.90
2023-01-19T11:54:54.721Z,3.00
2023-01-19T11:59:58.669Z,3.00
2023-01-19T12:05:06.350Z,3.20
2023-01-19T12:10:28.770Z,3.20
2023-01-19T12:15:41.917Z,3.40
2023-01-19T12:20:48.968Z,3.30
2023-01-19T12:26:32.346Z,3.30
2023-01-19T12:31:35.105Z,3.40
2023-01-19T12:36:40.613Z,3.40
2023-01-19T12:41:43.145Z,3.30
2023-01-19T12:46:58.078Z,3.30
2023-01-19T12:52:20.325Z,3.30
2023-01-19T12:58:00.365Z,3.50
2023-01-19T13:03:25.307Z,3.50
2023-01-19T13:08:30.434Z,3.70
2023-01-19T13:13:44.493Z,3.70
2023-01-19T13:18:54.909Z,3.70
2023-01-19T13:23:59.455Z,3.70
2023-01-19T13:29:22.977Z,3.80
2023-01-19T13:34:27.827Z,3.90
2023-01-19T13:39:36.890Z,4.00
2023-01-19T13:44:47.119Z,3.90
2023-01-19T13:49:54.410Z,4.00
2023-01-19T13:54:58.764Z,4.20
2023-01-19T14:00:08.411Z,4.20
2023-01-19T14:05:22.363Z,4.20
2023-01-19T14:10:24.154Z,4.10
2023-01-19T14:15:26.237Z,4.10
2023-01-19T14:20:29.886Z,4.50
2023-01-19T14:25:36.565Z,4.60
2023-01-19T14:30:38.493Z,4.40
2023-01-19T14:35:40.467Z,4.20
2023-01-19T14:40:42.522Z,4.10
2023-01-19T14:45:47.735Z,4.00
2023-01-19T14:51:02.803Z,4.00
2023-01-19T14:56:07.265Z,3.90
2023-01-19T15:01:09.532Z,3.90
2023-01-19T15:06:15.615Z,3.80
2023-01-19T15:11:24.712Z,3.80
2023-01-19T15:16:28.648Z,3.80
2023-01-19T15:21:30.687Z,3.80
2023-01-19T15:26:32.495Z,3.80
2023-01-19T15:31:35.702Z,3.70
2023-01-19T15:36:37.446Z,3.90
2023-01-19T15:41:40.168Z,3.90
2023-01-19T15:46:41.925Z,4.00
2023-01-19T15:51:43.782Z,3.90
2023-01-19T15:56:45.645Z,3.80
2023-01-19T16:01:47.498Z,3.70
2023-01-19T16:06:50.152Z,3.70
2023-01-19T16:11:57.024Z,3.60
2023-01-19T16:17:00.020Z,3.50
2023-01-19T16:22:02.076Z,3.40
2023-01-19T16:27:04.088Z,3.30
2023-01-19T16:32:06.083Z,3.20
2023-01-19T16:37:08.014Z,3.10
2023-01-19T16:42:09.776Z,3.10
2023-01-19T16:47:11.591Z,3.00
2023-01-19T16:52:13.498Z,2.90
2023-01-19T16:57:15.300Z,2.90
2023-01-19T17:02:17.079Z,2.90
2023-01-19T17:07:19.397Z,2.80
2023-01-19T17:12:21.243Z,2.70
2023-01-19T17:17:23.285Z,2.60
2023-01-19T17:22:25.057Z,2.70
2023-01-19T17:27:26.876Z,2.60
2023-01-19T17:32:29.836Z,2.50
2023-01-19T17:37:34.607Z,2.50
2023-01-19T17:42:42.535Z,2.40
2023-01-19T17:47:44.303Z,2.40
2023-01-19T17:52:46.177Z,2.70
2023-01-19T17:57:48.039Z,2.40
2023-01-19T18:02:51.370Z,2.30
2023-01-19T18:07:53.338Z,2.20
2023-01-19T18:12:55.222Z,2.30
2023-01-19T18:17:57.062Z,2.30
2023-01-19T18:22:58.956Z,2.20
2023-01-19T18:28:00.952Z,2.20
2023-01-19T18:33:04.259Z,2.10
2023-01-19T18:38:06.154Z,2.10
2023-01-19T18:43:09.805Z,2.10
2023-01-19T18:48:11.653Z,2.10
2023-01-19T18:53:14.138Z,2.10
2023-01-19T18:58:16.233Z,2.00
2023-01-19T19:03:18.102Z,2.00
2023-01-19T19:08:20.071Z,1.90
2023-01-19T19:13:23.589Z,1.90
2023-01-19T19:18:25.447Z,1.80
2023-01-19T19:23:27.307Z,1.70
2023-01-19T19:28:29.158Z,1.60
2023-01-19T19:33:30.960Z,1.50
2023-01-19T19:38:33.437Z,1.50
2023-01-19T19:43:36.434Z,1.30
2023-01-19T19:48:39.623Z,1.30
2023-01-19T19:53:41.779Z,1.40
2023-01-19T19:58:43.775Z,1.50
2023-01-19T20:03:45.975Z,1.60
2023-01-19T20:08:49.009Z,1.60
2023-01-19T20:14:07.234Z,1.50
2023-01-19T20:19:09.789Z,1.60
2023-01-19T20:24:17.218Z,1.50
2023-01-19T20:29:20.832Z,1.50
2023-01-19T20:34:25.918Z,1.50
2023-01-19T20:39:30.229Z,1.50
2023-01-19T20:44:32.051Z,1.40
2023-01-19T20:49:33.844Z,1.40
2023-01-19T20:54:35.807Z,1.40
2023-01-19T20:59:38.329Z,1.40
2023-01-19T21:04:40.534Z,1.40
2023-01-19T21:09:42.484Z,1.30
2023-01-19T21:14:45.937Z,1.30
2023-01-19T21:19:48.456Z,1.30
2023-01-19T21:24:50.257Z,1.30
2023-01-19T21:29:52.033Z,1.30
2023-01-19T21:34:53.851Z,1.30
2023-01-19T21:39:55.842Z,1.50
2023-01-19T21:44:57.963Z,1.30
2023-01-19T21:50:01.316Z,1.40
2023-01-19T21:55:03.122Z,1.50
2023-01-19T22:00:06.531Z,1.60
2023-01-19T22:05:08.717Z,1.50
2023-01-19T22:10:13.513Z,1.50
2023-01-19T22:15:15.467Z,1.50
2023-01-19T22:20:17.453Z,1.50
2023-01-19T22:25:23.800Z,1.50
2023-01-19T22:30:25.663Z,1.60
2023-01-19T22:35:27.629Z,1.60
2023-01-19T22:40:29.424Z,1.60
2023-01-19T22:45:31.197Z,1.60
2023-01-19T22:50:34.849Z,1.60
2023-01-19T22:55:36.568Z,1.60
2023-01-19T23:00:38.331Z,1.60
2023-01-19T23:05:40.213Z,1.60
2023-01-19T23:10:42.035Z,1.60
2023-01-19T23:15:44.116Z,1.50
2023-01-19T23:20:45.936Z,1.60
2023-01-19T23:25:47.747Z,1.60
2023-01-19T23:30:49.584Z,1.60
2023-01-19T23:35:51.481Z,1.70
2023-01-19T23:40:57.272Z,1.70
2023-01-19T23:46:05.870Z,1.50
2023-01-19T23:51:09.654Z,1.50
2023-01-19T23:56:15.588Z,1.50
